CheckWX is a tool to help pilots better visualize weather data.  It is not intended as a substitute for an official pre-flight weather briefing.

08:04:28 UTC

OISS TAF
Shiraz Shahid Dastghaib International Airport
Shiraz, Iran
TAF OISS 190530Z 1906/2018 28006KT CAVOK

Mar-19@
06:00 UTC

Mar-19 @ 06:00 UTC

Mar-20@
18:00 UTC

Mar-20 @ 18:00 UTC

TAF OISS 190530Z 1906/2018 28006KT CAVOK
Wind
  • 280° at 6 KTS
Conditions
No significant weather
Cloud Levels
  • No significant clouds